BTR50 LECH-LPPR
Flight info
| Callsign | BTR50 |
|---|---|
| Flight time | N/A |
| Altitude | 32000 |
| Route | TATOS DCT CJN DCT DIPOL/N0451F330 M191 BARDI/N0405F230 M191 RIVRO/N0451F320 DCT PESUL |
| Aircraft | B38M/M-SDE1FGHILORVWXY/HB1 |
Departure
| Time | 2026-04-21 17:11 |
|---|---|
| Airport | Castellón-Costa Azahar Airport (LECH) |
Arrival
| Time | N/A |
|---|---|
| Airport | Francisco de Sá Carneiro Airport (LPPR) |
| Time | Latitude | Longitude | Altitude | Speed | Heading |
|---|---|---|---|---|---|
| 2026-04-21 16:55 | 40.20509 | 0.06420 | 1065 ft | 0 kts | 147° |
| 2026-04-21 17:01 | 40.20524 | 0.06407 | 1065 ft | 3 kts | 147° |
| 2026-04-21 17:01 | 40.20545 | 0.06388 | 1064 ft | 3 kts | 146° |
| 2026-04-21 17:01 | 40.20547 | 0.06387 | 1064 ft | 0 kts | 146° |
| 2026-04-21 17:03 | 40.20544 | 0.06393 | 1064 ft | 0 kts | 94° |
| 2026-04-21 17:03 | 40.20545 | 0.06395 | 1065 ft | 0 kts | 54° |
| 2026-04-21 17:04 | 40.20550 | 0.06395 | 1065 ft | 2 kts | 344° |
| 2026-04-21 17:04 | 40.20573 | 0.06387 | 1065 ft | 3 kts | 1° |
| 2026-04-21 17:04 | 40.20580 | 0.06393 | 1065 ft | 0 kts | 54° |
| 2026-04-21 17:06 | 40.20591 | 0.06414 | 1067 ft | 7 kts | 54° |
| 2026-04-21 17:07 | 40.20613 | 0.06437 | 1068 ft | 4 kts | 22° |
| 2026-04-21 17:07 | 40.20673 | 0.06413 | 1068 ft | 13 kts | 325° |
| 2026-04-21 17:07 | 40.20678 | 0.06289 | 1060 ft | 19 kts | 233° |
| 2026-04-21 17:07 | 40.20646 | 0.06136 | 1049 ft | 16 kts | 313° |
| 2026-04-21 17:08 | 40.20667 | 0.06114 | 1047 ft | 0 kts | 326° |
| 2026-04-21 17:09 | 40.20705 | 0.06083 | 1046 ft | 13 kts | 329° |
| 2026-04-21 17:10 | 40.20786 | 0.06089 | 1048 ft | 10 kts | 50° |
| 2026-04-21 17:10 | 40.20822 | 0.06159 | 1054 ft | 11 kts | 58° |
| 2026-04-21 17:10 | 40.20984 | 0.06494 | 1079 ft | 80 kts | 57° |
| 2026-04-21 17:10 | 40.21415 | 0.07360 | 1126 ft | 145 kts | 56° |
| 2026-04-21 17:11 | 40.22070 | 0.08639 | 1439 ft | 176 kts | 57° |
| 2026-04-21 17:11 | 40.22824 | 0.09826 | 2284 ft | 177 kts | 50° |
| 2026-04-21 17:11 | 40.23511 | 0.11245 | 2900 ft | 193 kts | 64° |
| 2026-04-21 17:11 | 40.24121 | 0.12802 | 3564 ft | 207 kts | 66° |
| 2026-04-21 17:12 | 40.24840 | 0.14519 | 4216 ft | 227 kts | 61° |
| 2026-04-21 17:12 | 40.25717 | 0.16342 | 4949 ft | 247 kts | 59° |
| 2026-04-21 17:12 | 40.26678 | 0.18264 | 5779 ft | 261 kts | 58° |
| 2026-04-21 17:12 | 40.27920 | 0.20052 | 6739 ft | 271 kts | 32° |
| 2026-04-21 17:13 | 40.29672 | 0.20763 | 7763 ft | 270 kts | 357° |
| 2026-04-21 17:13 | 40.31447 | 0.20189 | 8800 ft | 265 kts | 327° |
| 2026-04-21 17:13 | 40.32789 | 0.18593 | 9819 ft | 261 kts | 306° |
| 2026-04-21 17:13 | 40.33822 | 0.16636 | 10722 ft | 264 kts | 299° |
| 2026-04-21 17:14 | 40.34610 | 0.14495 | 11599 ft | 267 kts | 287° |
| 2026-04-21 17:14 | 40.35045 | 0.12116 | 12511 ft | 268 kts | 277° |
| 2026-04-21 17:14 | 40.35204 | 0.09672 | 13338 ft | 271 kts | 270° |
| 2026-04-21 17:14 | 40.35164 | 0.07329 | 14115 ft | 274 kts | 265° |
| 2026-04-21 17:15 | 40.34882 | 0.04832 | 14890 ft | 278 kts | 256° |
| 2026-04-21 17:15 | 40.34281 | 0.02446 | 15659 ft | 282 kts | 248° |
| 2026-04-21 17:15 | 40.33404 | 0.00115 | 16429 ft | 286 kts | 242° |
| 2026-04-21 17:15 | 40.32283 | -0.02083 | 17148 ft | 291 kts | 232° |
| 2026-04-21 17:16 | 40.30880 | -0.04007 | 17861 ft | 296 kts | 223° |
| 2026-04-21 17:16 | 40.29231 | -0.05667 | 18539 ft | 301 kts | 215° |
| 2026-04-21 17:16 | 40.27420 | -0.07019 | 19206 ft | 305 kts | 206° |
| 2026-04-21 17:16 | 40.25366 | -0.07974 | 19872 ft | 310 kts | 196° |
| 2026-04-21 17:17 | 40.23227 | -0.08465 | 20506 ft | 316 kts | 188° |
| 2026-04-21 17:17 | 40.20988 | -0.08554 | 21126 ft | 321 kts | 178° |
| 2026-04-21 17:17 | 40.18774 | -0.08107 | 21706 ft | 327 kts | 167° |
| 2026-04-21 17:17 | 40.16707 | -0.07174 | 22267 ft | 332 kts | 159° |
| 2026-04-21 17:18 | 40.14693 | -0.05836 | 22818 ft | 337 kts | 149° |
| 2026-04-21 17:18 | 40.12810 | -0.03963 | 23367 ft | 342 kts | 137° |
| 2026-04-21 17:18 | 40.11244 | -0.01649 | 23613 ft | 355 kts | 127° |
| 2026-04-21 17:18 | 40.09809 | 0.00824 | 23794 ft | 368 kts | 131° |
| 2026-04-21 17:19 | 40.08078 | 0.03215 | 23888 ft | 382 kts | 139° |
| 2026-04-21 17:19 | 40.05969 | 0.05467 | 23880 ft | 394 kts | 146° |
| 2026-04-21 17:19 | 40.03646 | 0.07356 | 23866 ft | 392 kts | 154° |
| 2026-04-21 17:19 | 40.01175 | 0.08833 | 23866 ft | 389 kts | 162° |
| 2026-04-21 17:20 | 39.98555 | 0.09889 | 23867 ft | 387 kts | 169° |
| 2026-04-21 17:20 | 39.95893 | 0.10404 | 23866 ft | 385 kts | 180° |
| 2026-04-21 17:20 | 39.93217 | 0.10243 | 23879 ft | 385 kts | 191° |
| 2026-04-21 17:20 | 39.90586 | 0.09343 | 24379 ft | 384 kts | 204° |
| 2026-04-21 17:21 | 39.88218 | 0.07819 | 25043 ft | 380 kts | 214° |
| 2026-04-21 17:21 | 39.86117 | 0.05721 | 25505 ft | 380 kts | 226° |
| 2026-04-21 17:21 | 39.84381 | 0.03114 | 26038 ft | 379 kts | 237° |
| 2026-04-21 17:21 | 39.83100 | 0.00178 | 26484 ft | 380 kts | 248° |
| 2026-04-21 17:22 | 39.82497 | -0.01970 | 26804 ft | 380 kts | 255° |
| 2026-04-21 17:22 | 39.81971 | -0.06530 | 27453 ft | 382 kts | 270° |
| 2026-04-21 17:22 | 39.82192 | -0.09956 | 27899 ft | 385 kts | 280° |
| 2026-04-21 17:22 | 39.82940 | -0.13320 | 28365 ft | 387 kts | 291° |
| 2026-04-21 17:23 | 39.84194 | -0.16470 | 28778 ft | 392 kts | 302° |
| 2026-04-21 17:23 | 39.85898 | -0.19259 | 29179 ft | 398 kts | 312° |
| 2026-04-21 17:23 | 39.87991 | -0.21598 | 29578 ft | 404 kts | 322° |
| 2026-04-21 17:23 | 39.90447 | -0.23444 | 29986 ft | 410 kts | 332° |
| 2026-04-21 17:24 | 39.93066 | -0.24931 | 30389 ft | 412 kts | 333° |
| 2026-04-21 17:24 | 39.95654 | -0.26567 | 30734 ft | 414 kts | 328° |
| 2026-04-21 17:24 | 39.98085 | -0.28552 | 31150 ft | 413 kts | 321° |
| 2026-04-21 17:24 | 40.00038 | -0.30575 | 31453 ft | 412 kts | 315° |
| 2026-04-21 17:25 | 40.02199 | -0.33418 | 31832 ft | 412 kts | 308° |
| 2026-04-21 17:25 | 40.03721 | -0.36436 | 31906 ft | 412 kts | 290° |
| 2026-04-21 17:25 | 40.04401 | -0.39974 | 31933 ft | 404 kts | 275° |
| 2026-04-21 17:25 | 40.04527 | -0.43109 | 31942 ft | 402 kts | 270° |
| 2026-04-21 17:26 | 40.04673 | -0.50732 | 31966 ft | 403 kts | 273° |
| 2026-04-21 17:26 | 40.05269 | -0.57364 | 31980 ft | 404 kts | 278° |
| 2026-04-21 17:27 | 40.06252 | -0.64185 | 31981 ft | 405 kts | 281° |
| 2026-04-21 17:27 | 40.07390 | -0.71030 | 31986 ft | 406 kts | 281° |
| 2026-04-21 17:28 | 40.08611 | -0.78153 | 31999 ft | 407 kts | 281° |
| 2026-04-21 17:28 | 40.09843 | -0.85346 | 32010 ft | 407 kts | 281° |
| 2026-04-21 17:29 | 40.11065 | -0.92542 | 32020 ft | 406 kts | 281° |
| 2026-04-21 17:29 | 40.12277 | -0.99711 | 32030 ft | 404 kts | 281° |
| 2026-04-21 17:30 | 40.13493 | -1.06923 | 32025 ft | 406 kts | 281° |
| 2026-04-21 17:30 | 40.14693 | -1.14090 | 32008 ft | 406 kts | 281° |
| 2026-04-21 17:31 | 40.15900 | -1.21333 | 32011 ft | 407 kts | 281° |
| 2026-04-21 17:31 | 40.17046 | -1.28213 | 31998 ft | 405 kts | 281° |
| 2026-04-21 17:32 | 40.18234 | -1.35421 | 32007 ft | 406 kts | 280° |
| 2026-04-21 17:32 | 40.19399 | -1.42501 | 32016 ft | 406 kts | 281° |
| 2026-04-21 17:33 | 40.20578 | -1.49699 | 32023 ft | 406 kts | 280° |
| 2026-04-21 17:33 | 40.21729 | -1.56772 | 32024 ft | 406 kts | 280° |
| 2026-04-21 17:34 | 40.22936 | -1.64210 | 32015 ft | 406 kts | 280° |
| 2026-04-21 17:34 | 40.24059 | -1.71146 | 32009 ft | 406 kts | 279° |
| 2026-04-21 17:35 | 40.25210 | -1.78312 | 31999 ft | 406 kts | 279° |
| 2026-04-21 17:35 | 40.26317 | -1.85214 | 31997 ft | 407 kts | 279° |
| 2026-04-21 17:36 | 40.28278 | -1.97457 | 31989 ft | 405 kts | 279° |
| 2026-04-21 17:37 | 40.29157 | -2.02970 | 31984 ft | 406 kts | 279° |
| 2026-04-21 17:38 | 40.31473 | -2.17623 | 31975 ft | 407 kts | 279° |
| 2026-04-21 17:38 | 40.32830 | -2.26269 | 31971 ft | 408 kts | 279° |
| 2026-04-21 17:39 | 40.35075 | -2.40652 | 31951 ft | 408 kts | 279° |
| 2026-04-21 17:40 | 40.36119 | -2.47384 | 31944 ft | 407 kts | 279° |
| 2026-04-21 17:40 | 40.37155 | -2.54866 | 31938 ft | 405 kts | 275° |
| 2026-04-21 17:41 | 40.37522 | -2.61320 | 31932 ft | 404 kts | 270° |
| 2026-04-21 17:41 | 40.37717 | -2.69339 | 31930 ft | 405 kts | 269° |